Time;durP1;ratioP1;P1;durP2;ratioP2;P2;SDS_P1;SDS_P2;PMS_P1;PMS_P2;Temp;Humidity;BMP_temperature;BMP_pressure;BME280_temperature;BME280_humidity;BME280_pressure;Samples;Min_cycle;Max_cycle;Signal;HPM_P1;HPM_P2
2023/08/06 00:02:23;;;;;;;2.40;1.45;;;14.70;99.90;;;;;;5017764;28;20198;-69
2023/08/06 00:04:50;;;;;;;2.97;1.95;;;14.70;99.90;;;;;;5009506;28;20226;-70
2023/08/06 00:07:18;;;;;;;1.73;1.63;;;14.80;99.90;;;;;;5033752;28;20193;-70
2023/08/06 00:09:45;;;;;;;4.95;1.90;;;14.50;99.90;;;;;;5036948;28;20229;-70
2023/08/06 00:12:11;;;;;;;2.40;1.60;;;14.70;99.90;;;;;;5034116;28;20689;-69
2023/08/06 00:14:38;;;;;;;3.13;1.90;;;14.70;99.90;;;;;;5026143;28;20198;-70
2023/08/06 00:17:05;;;;;;;2.50;1.80;;;14.70;99.90;;;;;;5033692;28;20717;-70
2023/08/06 00:19:32;;;;;;;1.92;1.70;;;14.70;99.90;;;;;;5010015;28;20209;-69
2023/08/06 00:21:59;;;;;;;2.03;1.83;;;14.60;99.90;;;;;;5031883;28;20198;-69
2023/08/06 00:24:27;;;;;;;1.80;1.55;;;14.60;99.90;;;;;;5031538;28;20201;-70
2023/08/06 00:26:54;;;;;;;2.20;2.00;;;14.60;99.90;;;;;;5027816;28;21731;-69
2023/08/06 00:29:21;;;;;;;2.03;1.70;;;14.70;99.90;;;;;;5034093;28;20243;-70
2023/08/06 00:31:48;;;;;;;2.50;1.70;;;14.60;99.90;;;;;;5030119;28;20201;-70
2023/08/06 00:34:14;;;;;;;2.53;2.33;;;14.60;99.90;;;;;;5012459;28;20214;-69
2023/08/06 00:36:41;;;;;;;3.65;1.80;;;14.60;99.90;;;;;;5027396;28;20190;-70
2023/08/06 00:39:08;;;;;;;2.22;1.88;;;14.60;99.90;;;;;;5031296;28;20262;-70
2023/08/06 00:41:36;;;;;;;3.88;1.85;;;14.60;99.90;;;;;;5031575;28;20208;-70
2023/08/06 00:44:03;;;;;;;2.20;2.00;;;14.60;99.90;;;;;;5033927;28;20205;-70
2023/08/06 00:46:32;;;;;;;3.38;2.03;;;14.70;99.90;;;;;;5029775;28;20217;-70
2023/08/06 00:48:59;;;;;;;4.03;1.73;;;14.70;99.90;;;;;;5012466;28;20320;-69
2023/08/06 00:51:27;;;;;;;3.03;1.98;;;14.70;99.90;;;;;;5034417;28;20198;-71
2023/08/06 00:53:55;;;;;;;2.05;1.85;;;14.70;99.90;;;;;;5027263;28;20204;-70
2023/08/06 00:56:22;;;;;;;5.70;2.22;;;14.60;99.90;;;;;;5033360;28;20220;-70
2023/08/06 00:58:50;;;;;;;2.38;2.17;;;14.60;99.90;;;;;;5036070;28;20205;-70
2023/08/06 01:01:17;;;;;;;6.75;1.83;;;14.60;99.90;;;;;;5035992;28;20198;-70
2023/08/06 01:03:44;;;;;;;1.80;1.70;;;14.60;99.90;;;;;;5032576;28;20236;-70
2023/08/06 01:06:10;;;;;;;3.15;1.65;;;14.60;99.90;;;;;;5009233;28;20225;-70
2023/08/06 01:08:54;;;;;;;2.30;1.83;;;14.90;99.90;;;;;;5036249;28;20221;-70
2023/08/06 01:11:31;;;;;;;8.13;2.00;;;14.50;99.90;;;;;;5034751;28;20209;-70
2023/08/06 01:14:07;;;;;;;3.53;2.20;;;14.50;99.90;;;;;;5036391;28;20212;-70
2023/08/06 01:16:36;;;;;;;6.47;2.03;;;14.60;99.90;;;;;;5033416;28;20202;-70
2023/08/06 01:19:03;;;;;;;2.75;2.00;;;14.60;99.90;;;;;;5041778;28;20274;-69
2023/08/06 01:21:31;;;;;;;3.72;2.10;;;14.60;99.90;;;;;;5013081;28;20229;-70
2023/08/06 01:23:58;;;;;;;4.20;1.92;;;14.50;99.90;;;;;;5036747;28;20201;-69
2023/08/06 01:26:29;;;;;;;3.33;2.20;;;14.40;99.90;;;;;;5033710;28;20194;-70
2023/08/06 01:29:02;;;;;;;4.32;2.53;;;14.50;99.90;;;;;;5027779;28;20236;-71
2023/08/06 01:31:33;;;;;;;3.55;1.85;;;14.80;99.90;;;;;;5032362;28;20227;-70
2023/08/06 01:34:01;;;;;;;2.20;2.00;;;14.50;99.90;;;;;;5035063;28;20858;-70
2023/08/06 01:36:31;;;;;;;2.92;2.00;;;14.40;99.90;;;;;;5018454;28;20204;-70
2023/08/06 01:38:58;;;;;;;2.22;1.60;;;14.50;99.90;;;;;;5033993;28;20210;-69
2023/08/06 01:41:24;;;;;;;1.83;1.67;;;14.40;99.90;;;;;;5038193;28;20209;-70
2023/08/06 01:43:51;;;;;;;4.75;2.72;;;14.40;99.90;;;;;;5026404;28;20209;-70
2023/08/06 01:46:18;;;;;;;2.65;2.05;;;14.40;99.90;;;;;;5035134;28;20927;-69
2023/08/06 01:48:45;;;;;;;8.93;2.13;;;14.40;99.90;;;;;;5032626;28;20225;-69
2023/08/06 01:51:12;;;;;;;1.65;1.55;;;14.40;99.90;;;;;;5033665;28;20198;-70
2023/08/06 01:53:40;;;;;;;5.47;2.35;;;14.40;99.90;;;;;;5016234;28;20215;-70
2023/08/06 01:56:06;;;;;;;2.10;1.90;;;14.40;99.90;;;;;;5033753;28;20216;-69
2023/08/06 01:58:33;;;;;;;2.90;2.10;;;14.40;99.90;;;;;;5025597;28;20199;-70
2023/08/06 02:01:01;;;;;;;2.20;1.83;;;14.40;99.90;;;;;;5036307;28;20198;-69
2023/08/06 02:03:28;;;;;;;2.50;1.80;;;14.40;99.90;;;;;;5034114;28;20860;-70
2023/08/06 02:05:55;;;;;;;4.55;2.15;;;14.40;99.90;;;;;;5030944;28;20714;-70
2023/08/06 02:08:22;;;;;;;3.40;1.98;;;14.40;99.90;;;;;;5019271;28;20564;-70
2023/08/06 02:10:50;;;;;;;2.95;2.10;;;14.40;99.90;;;;;;5025901;28;20240;-69
2023/08/06 02:13:17;;;;;;;2.05;1.85;;;14.40;99.90;;;;;;5032470;28;20204;-70
2023/08/06 02:15:44;;;;;;;4.68;1.90;;;14.40;99.90;;;;;;5025761;28;20745;-70
2023/08/06 02:18:11;;;;;;;8.02;2.78;;;14.40;99.90;;;;;;5031865;28;20198;-70
2023/08/06 02:20:37;;;;;;;2.70;2.03;;;14.40;99.90;;;;;;5028401;28;20198;-70
2023/08/06 02:23:04;;;;;;;4.07;2.53;;;14.40;99.90;;;;;;5033776;28;20213;-69
2023/08/06 02:25:31;;;;;;;4.28;1.95;;;14.40;99.90;;;;;;5009503;28;20217;-70
2023/08/06 02:27:59;;;;;;;2.88;2.08;;;14.30;99.90;;;;;;5034635;28;20295;-69
2023/08/06 02:30:26;;;;;;;3.75;2.17;;;14.30;99.90;;;;;;5026226;28;20237;-70
2023/08/06 02:32:53;;;;;;;2.67;2.15;;;14.40;99.90;;;;;;5034983;28;20197;-69
2023/08/06 02:35:20;;;;;;;4.10;2.03;;;14.30;99.90;;;;;;5034502;28;20202;-69
2023/08/06 02:37:46;;;;;;;4.20;2.38;;;14.40;99.90;;;;;;5033504;28;20941;-70
2023/08/06 02:40:13;;;;;;;2.45;1.85;;;14.40;99.90;;;;;;5013536;28;20587;-69
2023/08/06 02:42:40;;;;;;;2.92;2.38;;;14.30;99.90;;;;;;5033823;28;20193;-70
2023/08/06 02:45:09;;;;;;;2.50;2.17;;;14.40;99.90;;;;;;5026389;28;20570;-70
2023/08/06 02:47:36;;;;;;;2.67;2.30;;;14.30;99.90;;;;;;5029915;28;20201;-70
2023/08/06 02:50:03;;;;;;;3.00;2.40;;;14.30;99.90;;;;;;5036114;28;20244;-69
2023/08/06 02:52:30;;;;;;;5.00;2.55;;;14.30;99.90;;;;;;5030765;28;20221;-70
2023/08/06 02:54:59;;;;;;;2.88;2.45;;;14.20;99.90;;;;;;5014486;28;20216;-70
2023/08/06 02:57:26;;;;;;;2.97;2.28;;;14.30;99.90;;;;;;5032262;28;20212;-70
2023/08/06 02:59:53;;;;;;;3.65;2.50;;;14.40;99.90;;;;;;5027876;28;20206;-70
2023/08/06 03:02:21;;;;;;;4.22;2.55;;;14.40;99.90;;;;;;5034219;28;20212;-70
2023/08/06 03:04:48;;;;;;;2.72;2.47;;;14.30;99.90;;;;;;5031225;28;20239;-70
2023/08/06 03:07:14;;;;;;;4.00;2.65;;;14.20;99.90;;;;;;5031123;28;20197;-70
2023/08/06 03:09:41;;;;;;;4.90;2.83;;;14.40;99.90;;;;;;5011124;28;20232;-70
2023/08/06 03:12:09;;;;;;;2.92;2.20;;;14.40;99.90;;;;;;5032192;28;20213;-69
2023/08/06 03:14:35;;;;;;;3.10;2.65;;;14.50;99.90;;;;;;5027634;28;20193;-70
2023/08/06 03:17:02;;;;;;;2.67;2.38;;;14.50;99.90;;;;;;5027801;28;20734;-70
2023/08/06 03:19:30;;;;;;;2.50;2.30;;;14.50;99.90;;;;;;5028680;28;20212;-70
2023/08/06 03:21:57;;;;;;;4.43;2.22;;;14.50;99.90;;;;;;5029684;28;20201;-70
2023/08/06 03:24:24;;;;;;;3.00;2.60;;;14.50;99.90;;;;;;5032410;28;20208;-69
2023/08/06 03:26:51;;;;;;;3.25;2.70;;;14.50;99.90;;;;;;5012112;28;20217;-69
2023/08/06 03:29:17;;;;;;;2.70;2.50;;;14.40;99.90;;;;;;5031514;28;20694;-69
2023/08/06 03:31:44;;;;;;;6.38;2.38;;;14.40;99.90;;;;;;5025139;28;20206;-70
2023/08/06 03:34:11;;;;;;;3.08;2.78;;;14.50;99.90;;;;;;5029110;28;20202;-70
2023/08/06 03:36:39;;;;;;;3.30;2.50;;;14.50;99.90;;;;;;5024853;28;20234;-70
2023/08/06 03:39:06;;;;;;;3.58;2.65;;;14.50;99.90;;;;;;5032907;28;20199;-70
2023/08/06 03:41:33;;;;;;;4.10;2.45;;;14.40;99.90;;;;;;5006732;28;20216;-70
2023/08/06 03:44:00;;;;;;;3.70;2.42;;;14.50;99.90;;;;;;5031208;28;20747;-69
2023/08/06 03:46:27;;;;;;;4.28;2.83;;;14.30;99.90;;;;;;5028233;28;20201;-70
2023/08/06 03:48:54;;;;;;;2.92;2.50;;;14.40;99.90;;;;;;5027222;28;20212;-70
2023/08/06 03:51:21;;;;;;;6.05;2.60;;;14.30;99.90;;;;;;5032839;28;20228;-70
2023/08/06 03:53:49;;;;;;;4.28;2.22;;;14.40;99.90;;;;;;5031857;28;20205;-70
2023/08/06 03:56:16;;;;;;;6.57;2.60;;;14.30;99.90;;;;;;5032133;28;20212;-70
2023/08/06 03:58:42;;;;;;;2.83;2.40;;;14.40;99.90;;;;;;5016957;28;20205;-70
2023/08/06 04:01:09;;;;;;;10.25;2.30;;;14.40;99.90;;;;;;5031513;28;20633;-69
2023/08/06 04:03:36;;;;;;;3.55;2.60;;;14.40;99.90;;;;;;5024251;28;20230;-70
2023/08/06 04:06:04;;;;;;;2.80;2.35;;;14.40;99.90;;;;;;5033198;28;20197;-70
2023/08/06 04:08:31;;;;;;;3.33;2.45;;;14.40;99.90;;;;;;5027941;28;20193;-70
2023/08/06 04:10:59;;;;;;;3.80;3.38;;;14.40;99.90;;;;;;5030371;28;20249;-70
2023/08/06 04:13:26;;;;;;;3.58;3.08;;;14.80;99.90;;;;;;5011938;28;20228;-70
2023/08/06 04:15:53;;;;;;;3.70;3.35;;;14.40;99.90;;;;;;5031725;28;20217;-70
2023/08/06 04:18:20;;;;;;;4.53;3.50;;;14.40;99.90;;;;;;5023448;28;20202;-70
2023/08/06 04:20:49;;;;;;;3.40;3.10;;;14.50;99.90;;;;;;5031969;28;20194;-69
2023/08/06 04:23:16;;;;;;;4.10;3.72;;;14.50;99.90;;;;;;5032047;28;21019;-70
2023/08/06 04:25:43;;;;;;;4.43;3.53;;;14.50;99.90;;;;;;5032499;28;20194;-69
2023/08/06 04:28:11;;;;;;;3.45;3.13;;;14.50;99.90;;;;;;5017484;28;20785;-69
2023/08/06 04:30:38;;;;;;;4.35;3.92;;;14.40;99.90;;;;;;5032457;28;20243;-70
2023/08/06 04:33:05;;;;;;;3.67;3.30;;;14.40;99.90;;;;;;5033575;28;20210;-69
2023/08/06 04:35:32;;;;;;;4.53;3.70;;;14.50;99.90;;;;;;5025863;28;20721;-70
2023/08/06 04:37:59;;;;;;;4.35;3.70;;;14.50;99.90;;;;;;5033277;28;20203;-69
2023/08/06 04:40:26;;;;;;;7.20;4.25;;;14.90;99.90;;;;;;5035835;28;20210;-70
2023/08/06 04:42:53;;;;;;;9.60;4.22;;;14.50;99.90;;;;;;5034585;28;20197;-69
2023/08/06 04:45:21;;;;;;;6.75;3.83;;;14.50;99.90;;;;;;5016375;28;20213;-73
2023/08/06 04:47:48;;;;;;;6.00;3.95;;;14.50;99.90;;;;;;5031402;28;20224;-70
2023/08/06 04:50:15;;;;;;;7.53;3.90;;;14.50;99.90;;;;;;5028323;28;20217;-70
2023/08/06 04:52:41;;;;;;;5.97;3.60;;;14.60;99.90;;;;;;5030580;28;20243;-70
2023/08/06 04:55:08;;;;;;;6.63;3.80;;;14.60;99.90;;;;;;5033744;28;20201;-70
2023/08/06 04:57:35;;;;;;;4.45;3.33;;;14.60;99.90;;;;;;5029742;28;20212;-69
2023/08/06 05:00:02;;;;;;;7.20;3.78;;;14.60;99.90;;;;;;5013319;28;20229;-70
2023/08/06 05:02:31;;;;;;;3.88;3.45;;;14.60;99.90;;;;;;5030018;28;20217;-70
2023/08/06 05:04:58;;;;;;;5.07;3.65;;;14.70;99.90;;;;;;5023562;28;20241;-70
2023/08/06 05:07:25;;;;;;;7.82;4.30;;;14.60;99.90;;;;;;5035556;28;20212;-70
2023/08/06 05:09:52;;;;;;;10.30;4.47;;;14.60;99.90;;;;;;5032472;28;20233;-70
2023/08/06 05:12:19;;;;;;;6.40;3.58;;;14.60;99.90;;;;;;5036686;28;20198;-70
2023/08/06 05:14:45;;;;;;;5.75;4.10;;;14.60;99.90;;;;;;5012755;28;20207;-70
2023/08/06 05:17:12;;;;;;;4.93;4.43;;;14.60;99.90;;;;;;5035119;28;20431;-70
2023/08/06 05:19:40;;;;;;;5.88;3.65;;;14.70;99.90;;;;;;5034837;28;20198;-69
2023/08/06 05:22:07;;;;;;;6.65;4.28;;;14.70;99.90;;;;;;5025136;28;20296;-70
2023/08/06 05:24:34;;;;;;;5.07;4.57;;;14.60;99.90;;;;;;5036020;28;20198;-69
2023/08/06 05:27:01;;;;;;;4.75;4.30;;;14.70;99.90;;;;;;5032720;28;20197;-70
2023/08/06 05:29:28;;;;;;;6.45;4.22;;;14.80;99.90;;;;;;5037545;28;20212;-70
2023/08/06 05:31:54;;;;;;;5.50;4.43;;;14.70;99.90;;;;;;5011547;28;20237;-70
2023/08/06 05:34:21;;;;;;;5.15;4.63;;;14.60;99.90;;;;;;5032550;28;20209;-70
2023/08/06 05:36:49;;;;;;;6.95;4.43;;;14.70;99.90;;;;;;5024506;28;20206;-70
2023/08/06 05:39:16;;;;;;;5.72;4.43;;;14.70;99.90;;;;;;5035327;28;20403;-69
2023/08/06 05:41:43;;;;;;;5.90;4.53;;;14.80;99.90;;;;;;5034150;28;20202;-69
2023/08/06 05:44:09;;;;;;;6.38;4.78;;;14.70;99.90;;;;;;5033519;28;20722;-70
2023/08/06 05:46:36;;;;;;;5.70;4.97;;;14.70;99.90;;;;;;5014476;28;21054;-69
2023/08/06 05:49:03;;;;;;;8.38;4.70;;;15.00;99.90;;;;;;5030252;28;20825;-70
2023/08/06 05:51:30;;;;;;;5.72;4.57;;;14.70;99.90;;;;;;5028989;28;20226;-69
2023/08/06 05:53:58;;;;;;;6.15;4.47;;;14.80;99.90;;;;;;5033656;28;20733;-70
2023/08/06 05:56:25;;;;;;;5.30;4.80;;;14.80;99.90;;;;;;5035510;28;20220;-69
2023/08/06 05:58:53;;;;;;;5.20;4.68;;;14.80;99.90;;;;;;5032628;28;20201;-70
2023/08/06 06:01:19;;;;;;;5.90;5.30;;;14.90;99.90;;;;;;5014965;28;20320;-70
2023/08/06 06:03:46;;;;;;;8.80;5.78;;;14.90;99.90;;;;;;5030229;28;20816;-70
2023/08/06 06:06:13;;;;;;;7.45;4.72;;;14.90;99.90;;;;;;5030422;28;20938;-70
2023/08/06 06:08:40;;;;;;;8.55;5.18;;;14.90;99.90;;;;;;5029430;28;20205;-70
2023/08/06 06:11:08;;;;;;;6.63;5.93;;;14.80;99.90;;;;;;5033913;28;20236;-70
2023/08/06 06:13:34;;;;;;;6.20;5.03;;;15.00;99.90;;;;;;5033654;28;20204;-69
2023/08/06 06:16:01;;;;;;;5.55;4.88;;;15.00;99.90;;;;;;5011128;28;20210;-69
2023/08/06 06:18:28;;;;;;;7.00;5.20;;;15.00;99.90;;;;;;5034660;28;21005;-70
2023/08/06 06:20:55;;;;;;;6.10;5.50;;;15.00;99.90;;;;;;5032353;28;20201;-70
2023/08/06 06:23:21;;;;;;;5.57;4.53;;;15.10;99.90;;;;;;5027307;28;20216;-69
2023/08/06 06:25:51;;;;;;;9.52;5.18;;;15.10;99.90;;;;;;5031004;28;20208;-69
2023/08/06 06:28:19;;;;;;;5.57;4.88;;;15.00;99.90;;;;;;5037202;28;20201;-70
2023/08/06 06:30:46;;;;;;;6.70;4.70;;;15.20;99.90;;;;;;5023063;28;20236;-70
2023/08/06 06:33:13;;;;;;;8.20;4.72;;;15.30;99.90;;;;;;5023674;28;20213;-69
2023/08/06 06:35:40;;;;;;;5.88;4.72;;;15.30;99.90;;;;;;5031786;28;20275;-69
2023/08/06 06:38:06;;;;;;;7.93;5.15;;;15.40;99.90;;;;;;5026481;28;20210;-70
2023/08/06 06:40:33;;;;;;;6.07;4.90;;;15.30;99.90;;;;;;5035529;28;20208;-70
2023/08/06 06:43:00;;;;;;;5.75;4.97;;;15.40;99.90;;;;;;5032699;28;20220;-70
2023/08/06 06:45:28;;;;;;;5.63;5.03;;;15.50;99.90;;;;;;5032968;28;20210;-70
2023/08/06 06:47:55;;;;;;;5.70;5.10;;;15.40;99.90;;;;;;5013619;28;20221;-71
2023/08/06 06:50:22;;;;;;;9.27;5.45;;;15.40;99.90;;;;;;5030733;28;20363;-69
2023/08/06 06:52:49;;;;;;;5.18;4.68;;;15.40;99.90;;;;;;5025088;28;20208;-70
2023/08/06 06:55:16;;;;;;;5.47;4.90;;;15.50;99.90;;;;;;5030092;28;20674;-70
2023/08/06 06:57:42;;;;;;;6.53;4.35;;;15.50;99.90;;;;;;5032643;28;20194;-69
2023/08/06 07:00:10;;;;;;;5.57;4.22;;;15.50;99.90;;;;;;5033175;28;20204;-70
2023/08/06 07:02:39;;;;;;;6.80;5.10;;;15.60;99.90;;;;;;5013961;28;20210;-69
2023/08/06 07:05:07;;;;;;;7.32;4.70;;;15.60;99.90;;;;;;5033996;28;20634;-69
2023/08/06 07:07:34;;;;;;;6.78;4.78;;;15.50;99.90;;;;;;5030995;28;20194;-69
2023/08/06 07:10:00;;;;;;;6.32;4.65;;;15.50;99.90;;;;;;5024484;28;20210;-70
2023/08/06 07:12:27;;;;;;;5.18;4.68;;;15.60;99.90;;;;;;5036115;28;20276;-69
2023/08/06 07:14:54;;;;;;;5.57;4.45;;;15.70;99.90;;;;;;5032365;28;20195;-69
2023/08/06 07:17:21;;;;;;;4.80;4.28;;;15.80;99.90;;;;;;5014080;28;20209;-69
2023/08/06 07:19:49;;;;;;;4.93;4.43;;;15.80;99.90;;;;;;5033256;28;20201;-70
2023/08/06 07:22:16;;;;;;;5.90;4.45;;;15.80;99.90;;;;;;5033038;28;20201;-69
2023/08/06 07:24:42;;;;;;;7.03;4.43;;;15.80;99.90;;;;;;5027657;28;20212;-70
2023/08/06 07:27:09;;;;;;;5.18;4.68;;;15.80;99.90;;;;;;5033089;28;20794;-70
2023/08/06 07:29:36;;;;;;;5.63;4.20;;;15.80;99.90;;;;;;5028702;28;20685;-69
2023/08/06 07:32:03;;;;;;;4.78;4.28;;;15.70;99.90;;;;;;5036159;28;20236;-69
2023/08/06 07:34:30;;;;;;;5.85;4.25;;;15.80;99.90;;;;;;5011841;28;20209;-69
2023/08/06 07:36:58;;;;;;;6.60;4.45;;;15.80;99.90;;;;;;5031973;28;20213;-70
2023/08/06 07:39:24;;;;;;;7.07;4.10;;;15.80;99.90;;;;;;5034656;28;20209;-70
2023/08/06 07:41:51;;;;;;;4.88;4.38;;;15.90;99.90;;;;;;5025318;28;20938;-71
2023/08/06 07:44:18;;;;;;;10.00;4.05;;;15.90;99.90;;;;;;5030634;28;20255;-69
2023/08/06 07:46:45;;;;;;;4.30;3.90;;;15.90;99.90;;;;;;5033141;28;20208;-70
2023/08/06 07:49:12;;;;;;;5.53;4.20;;;15.90;99.90;;;;;;5012705;28;20233;-70
2023/08/06 07:51:38;;;;;;;6.03;4.18;;;15.90;99.90;;;;;;5031644;28;20236;-69
2023/08/06 07:54:07;;;;;;;3.80;3.42;;;16.00;99.90;;;;;;5029851;28;20205;-69
2023/08/06 07:56:34;;;;;;;5.18;3.65;;;16.10;99.90;;;;;;5025144;28;20201;-75
2023/08/06 07:59:01;;;;;;;5.82;4.07;;;;;;;;;;5030650;28;20209;-70
2023/08/06 08:01:27;;;;;;;4.60;3.80;;;16.10;99.90;;;;;;5035855;28;20204;-70
2023/08/06 08:03:54;;;;;;;4.15;3.75;;;16.30;99.90;;;;;;5016069;28;20233;-70
2023/08/06 08:06:21;;;;;;;4.03;3.60;;;16.20;99.90;;;;;;5041597;28;20197;-70
2023/08/06 08:08:48;;;;;;;4.22;3.83;;;16.20;99.90;;;;;;5037626;28;20702;-69
2023/08/06 08:11:16;;;;;;;3.97;3.40;;;16.30;99.90;;;;;;5036526;28;20991;-69
2023/08/06 08:13:43;;;;;;;3.35;3.05;;;16.40;99.90;;;;;;5027905;28;20976;-70
2023/08/06 08:16:10;;;;;;;3.58;3.28;;;16.40;99.90;;;;;;5042710;28;20200;-70
2023/08/06 08:18:37;;;;;;;4.18;3.40;;;17.20;99.90;;;;;;5029572;28;20200;-70
2023/08/06 08:21:04;;;;;;;4.30;3.67;;;16.40;99.90;;;;;;5018710;28;20205;-69
2023/08/06 08:23:31;;;;;;;4.57;3.78;;;16.30;99.90;;;;;;5035090;28;20201;-71
2023/08/06 08:25:58;;;;;;;5.50;3.90;;;15.90;99.90;;;;;;5031661;28;20201;-70
2023/08/06 08:28:26;;;;;;;3.97;3.60;;;16.30;99.90;;;;;;5033320;28;20198;-71
2023/08/06 08:30:53;;;;;;;3.85;3.28;;;16.40;99.90;;;;;;5035933;28;20228;-70
2023/08/06 08:33:19;;;;;;;3.85;3.03;;;16.50;99.90;;;;;;5037691;28;20203;-70
2023/08/06 08:35:47;;;;;;;3.63;2.90;;;16.60;99.90;;;;;;5009914;28;20216;-70
2023/08/06 08:38:14;;;;;;;5.72;3.17;;;16.50;99.90;;;;;;5040583;28;20256;-70
2023/08/06 08:40:46;;;;;;;3.20;2.90;;;16.50;99.90;;;;;;5034711;28;20197;-71
2023/08/06 08:43:14;;;;;;;3.80;3.40;;;16.60;99.90;;;;;;5031707;28;20225;-70
2023/08/06 08:45:44;;;;;;;3.35;3.03;;;16.60;99.90;;;;;;5034162;28;20221;-70
2023/08/06 08:48:13;;;;;;;3.50;2.90;;;16.60;99.90;;;;;;5037394;28;20197;-70
2023/08/06 08:50:41;;;;;;;7.05;3.45;;;16.50;99.90;;;;;;5014017;28;20287;-70
2023/08/06 08:53:09;;;;;;;3.05;2.75;;;16.50;99.90;;;;;;5039205;28;20201;-70
2023/08/06 08:55:36;;;;;;;3.47;3.00;;;16.50;99.90;;;;;;5031460;28;20198;-70
2023/08/06 08:58:03;;;;;;;3.22;2.90;;;16.50;99.90;;;;;;5033366;28;20211;-69
2023/08/06 09:00:30;;;;;;;2.90;2.70;;;16.70;99.90;;;;;;5030591;28;20566;-71
2023/08/06 09:03:00;;;;;;;3.70;2.55;;;16.60;99.90;;;;;;5040146;28;20774;-70
2023/08/06 09:05:30;;;;;;;5.15;2.53;;;16.90;99.90;;;;;;5028074;28;20208;-70
2023/08/06 09:08:03;;;;;;;2.88;2.40;;;16.90;99.90;;;;;;5022420;28;20734;-69
2023/08/06 09:10:30;;;;;;;3.10;2.80;;;17.10;99.90;;;;;;5033955;28;20194;-70
2023/08/06 09:12:57;;;;;;;2.63;2.40;;;17.00;99.90;;;;;;5030838;28;20244;-69
2023/08/06 09:15:26;;;;;;;2.72;2.53;;;17.00;99.90;;;;;;5030950;28;20205;-69
2023/08/06 09:17:53;;;;;;;2.70;2.30;;;17.00;99.90;;;;;;5035237;28;20202;-69
2023/08/06 09:20:21;;;;;;;2.90;2.60;;;17.00;99.90;;;;;;5036039;28;20409;-70
2023/08/06 09:22:48;;;;;;;2.70;2.40;;;17.10;99.90;;;;;;5010750;28;20209;-70
2023/08/06 09:25:23;;;;;;;2.88;2.67;;;17.10;99.90;;;;;;5038679;28;20290;-69
2023/08/06 09:27:51;;;;;;;2.55;2.35;;;17.20;99.90;;;;;;5028097;28;21081;-69
2023/08/06 09:30:31;;;;;;;3.33;2.75;;;17.20;99.90;;;;;;5031304;28;20201;-69
2023/08/06 09:32:57;;;;;;;2.67;2.47;;;17.40;99.90;;;;;;5037332;28;20615;-69
2023/08/06 09:35:28;;;;;;;2.70;2.45;;;17.50;99.90;;;;;;5034776;28;20201;-70
2023/08/06 09:37:55;;;;;;;2.97;2.30;;;17.80;99.90;;;;;;5011719;28;20584;-69
2023/08/06 09:40:30;;;;;;;3.45;2.13;;;17.80;99.90;;;;;;5040224;28;20642;-69
2023/08/06 09:42:57;;;;;;;2.35;2.15;;;18.00;99.90;;;;;;5033985;28;20209;-70
2023/08/06 09:45:29;;;;;;;2.33;2.13;;;17.80;99.90;;;;;;5028292;28;20221;-70
2023/08/06 09:47:57;;;;;;;2.50;2.30;;;17.80;99.90;;;;;;5026374;28;20965;-69
2023/08/06 09:50:30;;;;;;;2.33;2.00;;;18.10;99.90;;;;;;5031843;28;20234;-69
2023/08/06 09:52:58;;;;;;;2.00;1.80;;;18.10;99.90;;;;;;5013034;28;20233;-70
2023/08/06 09:55:26;;;;;;;2.28;2.08;;;18.10;99.90;;;;;;5032913;28;20575;-70
2023/08/06 09:57:53;;;;;;;2.88;2.08;;;18.20;99.90;;;;;;5035651;28;20194;-70
2023/08/06 10:00:21;;;;;;;4.22;2.22;;;18.20;99.90;;;;;;5026814;28;20685;-70
2023/08/06 10:02:49;;;;;;;1.85;1.70;;;17.90;99.90;;;;;;5031282;28;20208;-70
2023/08/06 10:05:17;;;;;;;2.72;2.10;;;18.30;99.90;;;;;;5035968;28;20285;-69
2023/08/06 10:07:46;;;;;;;2.72;2.08;;;18.40;99.90;;;;;;5012329;28;20209;-70
2023/08/06 10:10:13;;;;;;;2.33;2.10;;;18.40;99.90;;;;;;5037084;28;20201;-70
2023/08/06 10:12:43;;;;;;;2.30;1.98;;;18.40;99.90;;;;;;5029167;28;20226;-70
2023/08/06 10:15:13;;;;;;;1.80;1.70;;;18.40;99.90;;;;;;5030667;28;20292;-69
2023/08/06 10:17:41;;;;;;;3.10;1.77;;;18.40;99.90;;;;;;5034634;28;20539;-71
2023/08/06 10:20:10;;;;;;;2.38;1.92;;;18.50;99.90;;;;;;5034820;28;20197;-70
2023/08/06 10:22:36;;;;;;;2.65;1.70;;;18.50;99.90;;;;;;5032871;28;20225;-70
2023/08/06 10:25:05;;;;;;;2.15;1.90;;;18.50;99.90;;;;;;5018086;28;20702;-70
2023/08/06 10:27:40;;;;;;;4.22;2.20;;;18.60;99.90;;;;;;5027886;28;20697;-70
2023/08/06 10:30:26;;;;;;;2.30;2.10;;;18.70;99.90;;;;;;5027821;28;20320;-70
2023/08/06 10:32:54;;;;;;;2.08;1.85;;;18.60;99.90;;;;;;5031545;28;20227;-70
2023/08/06 10:35:31;;;;;;;2.17;1.98;;;18.70;99.90;;;;;;5036448;28;20201;-69
2023/08/06 10:38:05;;;;;;;2.45;2.25;;;18.60;99.90;;;;;;5031569;28;20476;-70
2023/08/06 10:40:34;;;;;;;2.55;2.08;;;18.70;99.90;;;;;;5009426;28;20213;-73
2023/08/06 10:43:01;;;;;;;2.60;2.10;;;18.80;99.90;;;;;;5035668;28;20208;-69
2023/08/06 10:45:30;;;;;;;3.90;2.05;;;18.60;99.90;;;;;;5031500;28;20562;-70
2023/08/06 10:47:57;;;;;;;3.78;2.13;;;18.60;99.90;;;;;;5028315;28;20205;-69
2023/08/06 10:50:25;;;;;;;2.75;2.40;;;18.50;99.90;;;;;;5037237;28;20204;-69
2023/08/06 10:52:52;;;;;;;4.03;3.28;;;18.50;99.90;;;;;;5032724;28;20224;-69
2023/08/06 10:55:26;;;;;;;3.47;3.17;;;18.50;99.90;;;;;;5015023;28;20208;-69
2023/08/06 10:57:55;;;;;;;4.93;3.50;;;18.50;99.90;;;;;;5031116;28;20228;-69
2023/08/06 11:00:23;;;;;;;3.13;2.75;;;18.30;99.90;;;;;;5035431;28;20224;-70
2023/08/06 11:02:51;;;;;;;4.80;3.35;;;18.40;99.90;;;;;;5020338;28;20328;-69
2023/08/06 11:05:18;;;;;;;5.03;3.50;;;18.40;99.90;;;;;;5036427;28;20213;-69
2023/08/06 11:07:45;;;;;;;5.38;3.70;;;18.50;99.90;;;;;;5030975;28;20225;-69
2023/08/06 11:10:13;;;;;;;3.45;3.15;;;18.50;99.90;;;;;;5032683;28;20710;-69
2023/08/06 11:12:40;;;;;;;3.88;3.50;;;18.70;99.90;;;;;;5010590;28;20710;-70
2023/08/06 11:15:10;;;;;;;4.03;3.30;;;18.50;99.90;;;;;;5036428;28;20202;-69
2023/08/06 11:17:37;;;;;;;5.40;3.42;;;18.70;99.90;;;;;;5026354;28;20777;-69
2023/08/06 11:20:06;;;;;;;3.22;2.92;;;18.80;99.90;;;;;;5026818;28;20667;-69
2023/08/06 11:22:33;;;;;;;4.60;2.15;;;18.90;99.90;;;;;;5030558;28;20200;-70
2023/08/06 11:25:01;;;;;;;2.60;2.35;;;18.90;99.90;;;;;;5030766;28;20202;-69
2023/08/06 11:27:29;;;;;;;3.63;2.45;;;19.00;99.90;;;;;;5008383;28;20229;-70
2023/08/06 11:29:55;;;;;;;2.50;2.30;;;19.10;99.90;;;;;;5027081;28;20194;-69
2023/08/06 11:32:24;;;;;;;3.22;2.40;;;19.00;99.90;;;;;;5033433;28;20222;-69
2023/08/06 11:34:51;;;;;;;4.15;2.90;;;19.10;99.90;;;;;;5028401;28;20281;-69
2023/08/06 11:37:23;;;;;;;2.85;2.60;;;19.10;99.90;;;;;;5032945;28;20291;-69
2023/08/06 11:39:49;;;;;;;2.83;2.25;;;19.20;99.90;;;;;;5033256;28;20232;-69
2023/08/06 11:42:16;;;;;;;2.47;2.22;;;19.30;99.90;;;;;;5031535;28;20209;-69
2023/08/06 11:44:45;;;;;;;6.13;2.58;;;19.20;99.90;;;;;;5010833;28;20368;-69
2023/08/06 11:47:14;;;;;;;2.80;2.20;;;19.20;99.90;;;;;;5032932;28;20202;-69
2023/08/06 11:49:47;;;;;;;2.38;2.17;;;19.30;99.90;;;;;;5024668;28;20593;-69
2023/08/06 11:52:19;;;;;;;2.17;1.98;;;19.30;99.90;;;;;;5033168;28;20225;-69
2023/08/06 11:54:47;;;;;;;2.58;2.30;;;19.30;99.90;;;;;;5029168;28;20205;-69
2023/08/06 11:57:14;;;;;;;3.13;2.22;;;19.30;99.90;;;;;;5030662;28;20204;-69
2023/08/06 11:59:41;;;;;;;3.20;2.92;;;19.60;99.90;;;;;;5007719;28;20206;-70
2023/08/06 12:02:11;;;;;;;4.10;2.30;;;19.60;99.90;;;;;;5034583;28;20201;-69
2023/08/06 12:05:02;;;;;;;5.95;2.30;;;19.40;99.90;;;;;;5026935;28;20228;-69
2023/08/06 12:07:30;;;;;;;2.95;2.35;;;19.40;99.90;;;;;;5029080;28;20202;-69
2023/08/06 12:09:57;;;;;;;1.90;1.80;;;19.30;99.90;;;;;;5029949;28;20254;-69
2023/08/06 12:12:24;;;;;;;3.17;2.25;;;19.30;99.90;;;;;;5029670;28;20221;-70
2023/08/06 12:14:51;;;;;;;2.08;1.88;;;20.10;99.90;;;;;;5009119;28;20257;-69
2023/08/06 12:17:18;;;;;;;3.67;2.70;;;19.60;99.90;;;;;;5025138;28;20238;-69
2023/08/06 12:19:46;;;;;;;3.80;3.00;;;19.60;99.90;;;;;;5032731;28;20202;-69
2023/08/06 12:22:14;;;;;;;4.25;2.67;;;19.50;99.90;;;;;;5026384;28;20398;-69
2023/08/06 12:24:42;;;;;;;2.80;2.42;;;19.60;99.90;;;;;;5032342;28;20581;-69
2023/08/06 12:27:09;;;;;;;6.15;3.13;;;19.60;99.90;;;;;;5029293;28;20204;-69
2023/08/06 12:29:36;;;;;;;4.70;2.70;;;19.60;99.90;;;;;;5013771;28;20203;-69
2023/08/06 12:32:04;;;;;;;3.15;2.55;;;19.80;99.90;;;;;;5026155;28;20629;-69
2023/08/06 12:34:30;;;;;;;2.85;2.38;;;19.80;99.90;;;;;;5029123;28;20840;-69
2023/08/06 12:36:57;;;;;;;3.00;2.65;;;19.90;99.90;;;;;;5024089;28;20202;-69
2023/08/06 12:39:28;;;;;;;3.72;2.67;;;19.80;99.90;;;;;;5031684;28;20202;-69
2023/08/06 12:41:55;;;;;;;4.43;2.55;;;19.80;99.90;;;;;;5035644;28;20212;-69
2023/08/06 12:44:22;;;;;;;3.90;2.22;;;19.80;99.90;;;;;;5029348;28;20476;-69
2023/08/06 12:46:49;;;;;;;3.50;2.20;;;19.80;99.90;;;;;;5011148;28;20679;-70
2023/08/06 12:49:15;;;;;;;2.85;2.33;;;19.80;99.90;;;;;;5030201;28;20429;-68
2023/08/06 12:51:42;;;;;;;2.80;2.50;;;19.90;99.90;;;;;;5030813;28;20670;-69